CN-0043 weather

Mengzi Air Base
Yunnan Province, China

Public forecast

Using degrees Celsius for public forecast. Weather courtesy of forecast.io.

Closest aviation weather report (METAR) to Mengzi Air Base

Closest report is Kunming Changshui International Airport, 104.8 nm (194.2 km) NNW. Retrieved 2020/02/17 15:00 UTC (15 minutes ago):

ZPPP 171500Z 35003MPS 4000 BR SCT004 SCT013 OVC033 03/03 Q1028 NOSIG

Closest aviation forecast (TAF) to Mengzi Air Base

Closest forecast is Kunming Changshui International Airport, 104.8 nm (194.2 km) NNW. Retrieved 2020/02/17 12:00 UTC (3 hours ago):

TAF ZPPP 170707Z 1712/1812 04004MPS 9999 SCT020 BKN033 TX10/1808Z TN03/1723Z